Time;durP1;ratioP1;P1;durP2;ratioP2;P2;SDS_P1;SDS_P2;PMS_P1;PMS_P2;Temp;Humidity;BMP_temperature;BMP_pressure;BME280_temperature;BME280_humidity;BME280_pressure;Samples;Min_cycle;Max_cycle;Signal;HPM_P1;HPM_P2
2022/10/12 00:01:52;;;;;;;9.32;6.57;;;18.50;99.90;;;;;;4731237;30;20062;-76
2022/10/12 00:04:18;;;;;;;12.98;6.57;;;18.50;99.90;;;;;;4720299;30;20056;-77
2022/10/12 00:06:43;;;;;;;12.48;6.60;;;18.50;99.90;;;;;;4733724;30;20055;-76
2022/10/12 00:09:09;;;;;;;10.68;6.13;;;18.50;99.90;;;;;;4755348;30;20044;-77
2022/10/12 00:11:39;;;;;;;12.32;6.03;;;18.50;99.90;;;;;;4736084;30;20106;-76
2022/10/12 00:14:05;;;;;;;8.07;5.15;;;18.50;99.90;;;;;;4735302;30;20405;-76
2022/10/12 00:16:31;;;;;;;10.43;5.40;;;18.50;99.90;;;;;;4732871;30;20086;-77
2022/10/12 00:18:58;;;;;;;9.20;5.32;;;18.50;99.90;;;;;;4738578;30;20052;-72
2022/10/12 00:21:25;;;;;;;11.15;5.78;;;18.50;99.90;;;;;;4736685;30;20076;-73
2022/10/12 00:23:51;;;;;;;10.25;5.13;;;18.50;99.90;;;;;;4738284;30;20055;-72
2022/10/12 00:26:22;;;;;;;9.73;5.03;;;18.50;99.90;;;;;;4734977;30;20520;-72
2022/10/12 00:28:52;;;;;;;9.23;4.88;;;18.50;99.90;;;;;;4736494;30;20135;-71
2022/10/12 00:31:19;;;;;;;9.80;5.40;;;18.50;99.90;;;;;;4738666;30;20124;-72
2022/10/12 00:33:46;;;;;;;11.43;4.93;;;18.50;99.90;;;;;;4740899;30;20047;-72
2022/10/12 00:36:15;;;;;;;9.25;4.70;;;18.50;99.90;;;;;;4740502;30;20130;-72
2022/10/12 00:38:42;;;;;;;7.90;4.68;;;18.50;99.90;;;;;;4734263;30;20041;-71
2022/10/12 00:41:08;;;;;;;10.20;4.43;;;18.50;99.90;;;;;;4735248;30;20135;-72
2022/10/12 00:43:37;;;;;;;7.32;4.28;;;18.50;99.90;;;;;;4738790;30;20048;-72
2022/10/12 00:46:15;;;;;;;8.88;4.90;;;18.50;99.90;;;;;;4736192;30;20398;-72
2022/10/12 00:48:41;;;;;;;6.97;4.00;;;18.50;99.90;;;;;;4741144;30;20453;-72
2022/10/12 00:51:09;;;;;;;8.25;4.15;;;18.50;99.90;;;;;;4741609;29;20052;-72
2022/10/12 00:53:41;;;;;;;9.75;4.45;;;18.50;99.90;;;;;;4724977;30;20492;-73
2022/10/12 00:56:12;;;;;;;7.80;4.25;;;18.50;99.90;;;;;;4752150;29;20059;-72
2022/10/12 00:58:38;;;;;;;8.15;4.60;;;18.50;99.90;;;;;;4738575;30;20056;-73
2022/10/12 01:01:05;;;;;;;7.82;4.43;;;18.40;99.90;;;;;;4735329;30;20044;-72
2022/10/12 01:03:32;;;;;;;8.63;4.15;;;18.40;99.90;;;;;;4733574;30;20040;-72
2022/10/12 01:05:58;;;;;;;9.60;4.45;;;18.40;99.90;;;;;;4740588;30;20040;-73
2022/10/12 01:08:24;;;;;;;6.78;3.78;;;18.40;99.90;;;;;;4741426;30;20051;-72
2022/10/12 01:10:50;;;;;;;8.32;4.22;;;18.40;99.90;;;;;;4743071;30;20040;-73
2022/10/12 01:13:17;;;;;;;7.63;4.20;;;18.40;99.90;;;;;;4736439;30;20048;-73
2022/10/12 01:15:58;;;;;;;8.98;4.45;;;18.40;99.90;;;;;;4742044;29;20500;-73
2022/10/12 01:18:44;;;;;;;10.15;4.68;;;18.30;99.90;;;;;;4738801;30;20506;-71
2022/10/12 01:21:20;;;;;;;11.35;4.10;;;18.30;99.90;;;;;;4739547;30;20075;-72
2022/10/12 01:24:00;;;;;;;9.85;4.03;;;18.40;99.90;;;;;;4727498;30;20045;-72
2022/10/12 01:26:47;;;;;;;7.72;4.40;;;18.30;99.90;;;;;;4743511;29;20040;-73
2022/10/12 01:29:41;;;;;;;8.23;4.35;;;18.30;99.90;;;;;;4740655;30;20048;-74
2022/10/12 01:32:16;;;;;;;9.23;3.97;;;18.30;99.90;;;;;;4741504;29;20059;-73
2022/10/12 01:34:46;;;;;;;9.10;4.72;;;18.30;99.90;;;;;;4742830;30;20048;-72
2022/10/12 01:37:44;;;;;;;8.52;4.38;;;18.20;99.90;;;;;;4743682;29;20090;-73
2022/10/12 01:40:34;;;;;;;8.45;4.57;;;18.20;99.90;;;;;;4738575;30;20382;-72
2022/10/12 01:43:03;;;;;;;7.97;4.28;;;18.20;99.90;;;;;;4740879;30;20046;-73
2022/10/12 01:45:29;;;;;;;8.80;4.00;;;18.30;99.90;;;;;;4713544;30;20125;-72
2022/10/12 01:47:54;;;;;;;11.25;4.47;;;18.20;99.90;;;;;;4739481;30;20962;-72
2022/10/12 01:50:26;;;;;;;5.35;3.05;;;18.20;99.90;;;;;;4739399;30;20072;-72
2022/10/12 01:52:52;;;;;;;7.82;3.60;;;18.20;99.90;;;;;;4737562;30;20064;-73
2022/10/12 01:55:49;;;;;;;6.82;3.60;;;18.20;99.90;;;;;;4736037;30;20416;-73
2022/10/12 01:58:41;;;;;;;;;;;18.20;99.90;;;;;;4740773;30;20044;-72
2022/10/12 02:01:38;;;;;;;6.35;3.30;;;18.20;99.90;;;;;;4740703;29;20297;-72
2022/10/12 02:04:26;;;;;;;7.53;3.38;;;18.10;99.90;;;;;;4738158;30;20048;-72
2022/10/12 02:06:59;;;;;;;6.50;2.90;;;18.10;99.90;;;;;;4739533;30;20032;-72
2022/10/12 02:09:32;;;;;;;6.78;2.75;;;18.10;99.90;;;;;;4739694;30;20078;-72
2022/10/12 02:12:08;;;;;;;6.05;2.28;;;18.10;99.90;;;;;;4724540;30;20080;-72
2022/10/12 02:14:39;;;;;;;5.60;2.50;;;18.10;99.90;;;;;;4739371;30;20128;-72
2022/10/12 02:17:10;;;;;;;7.43;2.78;;;18.10;99.90;;;;;;4742633;30;20159;-72
2022/10/12 02:19:40;;;;;;;6.72;2.42;;;18.10;99.90;;;;;;4742755;30;20051;-73
2022/10/12 02:22:08;;;;;;;5.18;2.53;;;18.10;99.90;;;;;;4738121;30;20051;-72
2022/10/12 02:24:38;;;;;;;5.20;2.45;;;18.10;99.90;;;;;;4740138;30;20044;-72
2022/10/12 02:27:06;;;;;;;5.47;2.40;;;18.00;99.90;;;;;;4736402;30;20120;-73
2022/10/12 02:29:42;;;;;;;9.40;2.75;;;18.10;99.90;;;;;;4738852;30;20044;-72
2022/10/12 02:32:10;;;;;;;7.22;2.80;;;18.10;99.90;;;;;;4741005;30;20055;-73
2022/10/12 02:34:57;;;;;;;5.97;2.40;;;18.00;99.90;;;;;;4738424;30;20040;-72
2022/10/12 02:38:12;;;;;;;6.30;2.35;;;18.00;99.90;;;;;;4740612;30;20164;-72
2022/10/12 02:40:46;;;;;;;6.13;2.78;;;18.00;99.90;;;;;;4758692;29;20078;-71
2022/10/12 02:43:21;;;;;;;5.50;2.78;;;18.00;99.90;;;;;;4751972;30;20386;-72
2022/10/12 02:45:48;;;;;;;7.35;3.10;;;18.00;99.90;;;;;;4739153;30;20116;-71
2022/10/12 02:48:16;;;;;;;;;;;18.00;99.90;;;;;;4740432;30;20113;-72
2022/10/12 02:50:43;;;;;;;5.95;2.75;;;17.90;99.90;;;;;;4741321;30;20342;-72
2022/10/12 02:53:09;;;;;;;5.95;2.58;;;18.00;99.90;;;;;;4736589;30;20182;-72
2022/10/12 02:55:58;;;;;;;6.90;2.63;;;18.00;99.90;;;;;;4736727;30;20590;-72
2022/10/12 02:58:24;;;;;;;8.57;2.90;;;18.00;99.90;;;;;;4739584;30;20059;-72
2022/10/12 03:00:50;;;;;;;6.32;2.70;;;17.90;99.90;;;;;;4740877;30;20468;-72
2022/10/12 03:03:16;;;;;;;5.20;2.80;;;17.90;99.90;;;;;;4724308;30;20104;-72
2022/10/12 03:05:42;;;;;;;7.78;3.20;;;17.90;99.90;;;;;;4742454;30;20089;-72
2022/10/12 03:08:08;;;;;;;7.75;2.97;;;18.00;99.90;;;;;;4732089;30;20048;-72
2022/10/12 03:10:34;;;;;;;6.22;2.60;;;17.90;99.90;;;;;;4739284;30;20753;-74
2022/10/12 03:12:59;;;;;;;9.77;3.30;;;17.90;99.90;;;;;;4741969;30;20125;-72
2022/10/12 03:15:26;;;;;;;5.25;2.63;;;17.90;99.90;;;;;;4738314;30;20231;-72
2022/10/12 03:17:52;;;;;;;5.30;2.58;;;17.90;99.90;;;;;;4734916;30;20121;-72
2022/10/12 03:20:17;;;;;;;6.35;2.42;;;17.90;99.90;;;;;;4741529;30;20040;-73
2022/10/12 03:22:43;;;;;;;5.28;2.70;;;17.80;99.90;;;;;;4738521;30;20040;-73
2022/10/12 03:25:09;;;;;;;5.53;2.33;;;17.80;99.90;;;;;;4741627;30;20040;-72
2022/10/12 03:27:35;;;;;;;6.30;2.78;;;17.80;99.90;;;;;;4739194;30;20040;-73
2022/10/12 03:30:00;;;;;;;5.10;2.38;;;17.80;99.90;;;;;;4743971;30;20440;-73
2022/10/12 03:32:26;;;;;;;6.30;2.40;;;17.80;99.90;;;;;;4739500;30;20061;-71
2022/10/12 03:34:52;;;;;;;4.75;2.30;;;17.80;99.90;;;;;;4737813;30;20048;-72
2022/10/12 03:37:18;;;;;;;6.85;3.10;;;17.70;99.90;;;;;;4736077;30;20435;-72
2022/10/12 03:39:43;;;;;;;5.97;2.15;;;17.80;99.90;;;;;;4739006;30;20045;-73
2022/10/12 03:42:10;;;;;;;6.70;2.28;;;17.80;99.90;;;;;;4742967;30;20107;-73
2022/10/12 03:44:36;;;;;;;5.38;2.53;;;17.70;99.90;;;;;;4736780;30;20052;-72
2022/10/12 03:47:01;;;;;;;5.00;2.53;;;17.80;99.90;;;;;;4734679;30;20525;-72
2022/10/12 03:49:27;;;;;;;5.45;2.80;;;17.70;99.90;;;;;;4736016;30;20052;-72
2022/10/12 03:51:53;;;;;;;5.72;2.22;;;17.70;99.90;;;;;;4725138;30;20048;-72
2022/10/12 03:54:20;;;;;;;7.35;2.67;;;17.70;99.90;;;;;;4740182;30;20139;-72
2022/10/12 03:56:45;;;;;;;5.10;2.28;;;17.80;99.90;;;;;;4735675;29;20523;-74
2022/10/12 03:59:11;;;;;;;8.27;2.88;;;17.70;99.90;;;;;;4747773;30;20044;-74
2022/10/12 04:01:37;;;;;;;6.35;2.35;;;17.70;99.90;;;;;;4739474;30;20071;-73
2022/10/12 04:04:03;;;;;;;6.40;2.83;;;17.70;99.90;;;;;;4740240;30;20598;-74
2022/10/12 04:06:29;;;;;;;14.82;2.95;;;17.70;99.90;;;;;;4742360;30;20068;-73
2022/10/12 04:08:54;;;;;;;6.18;2.60;;;17.70;99.90;;;;;;4738158;30;21238;-74
2022/10/12 04:11:20;;;;;;;7.35;2.35;;;17.70;99.90;;;;;;4735550;30;20131;-74
2022/10/12 04:13:46;;;;;;;5.75;2.30;;;17.70;99.90;;;;;;4736398;30;20135;-72
2022/10/12 04:16:11;;;;;;;5.78;2.33;;;17.80;99.90;;;;;;4734304;30;20043;-72
2022/10/12 04:18:37;;;;;;;5.97;2.88;;;17.80;99.90;;;;;;4739902;30;20048;-71
2022/10/12 04:21:08;;;;;;;7.00;2.85;;;17.80;99.90;;;;;;4736129;30;26056;-72
2022/10/12 04:23:35;;;;;;;5.03;2.50;;;17.80;99.90;;;;;;4738439;30;20047;-71
2022/10/12 04:26:01;;;;;;;6.00;2.45;;;17.80;99.90;;;;;;4734680;30;20058;-72
2022/10/12 04:28:27;;;;;;;7.93;3.10;;;17.80;99.90;;;;;;4734914;30;20048;-72
2022/10/12 04:30:53;;;;;;;6.28;2.63;;;17.80;99.90;;;;;;4735870;30;20047;-72
2022/10/12 04:33:18;;;;;;;5.93;2.60;;;17.80;99.90;;;;;;4737609;30;20400;-73
2022/10/12 04:35:44;;;;;;;7.03;2.40;;;17.80;99.90;;;;;;4737546;30;20524;-72
2022/10/12 04:38:11;;;;;;;5.95;3.25;;;17.80;99.90;;;;;;4736944;30;20053;-72
2022/10/12 04:40:37;;;;;;;6.45;3.08;;;17.80;99.90;;;;;;4739897;30;20040;-72
2022/10/12 04:43:03;;;;;;;5.53;2.78;;;17.80;99.90;;;;;;4734143;30;20138;-72
2022/10/12 04:45:29;;;;;;;8.48;2.60;;;17.70;99.90;;;;;;4735600;30;20044;-72
2022/10/12 04:47:55;;;;;;;5.53;2.40;;;17.70;99.90;;;;;;4738935;30;20072;-72
2022/10/12 04:50:21;;;;;;;7.43;2.63;;;17.70;99.90;;;;;;4739383;29;20090;-71
2022/10/12 04:52:47;;;;;;;6.05;3.17;;;17.80;99.90;;;;;;4739637;30;20044;-72
2022/10/12 04:55:13;;;;;;;5.30;3.05;;;17.70;99.90;;;;;;4740201;30;20055;-72
2022/10/12 04:57:39;;;;;;;9.00;4.35;;;17.70;99.90;;;;;;4735688;30;20045;-72
2022/10/12 05:00:06;;;;;;;6.57;3.17;;;17.70;99.90;;;;;;4740283;30;20090;-72
2022/10/12 05:02:32;;;;;;;5.00;2.42;;;17.70;99.90;;;;;;4723967;30;20195;-72
2022/10/12 05:04:58;;;;;;;5.05;2.05;;;17.70;99.90;;;;;;4740974;30;20072;-72
2022/10/12 05:07:24;;;;;;;8.15;2.67;;;17.70;99.90;;;;;;4737945;30;20448;-72
2022/10/12 05:09:49;;;;;;;6.43;2.63;;;17.70;99.90;;;;;;4726516;30;20093;-72
2022/10/12 05:12:15;;;;;;;5.82;2.35;;;17.80;99.90;;;;;;4721935;30;20036;-73
2022/10/12 05:14:43;;;;;;;6.95;2.60;;;17.80;99.90;;;;;;4737492;30;20036;-73
2022/10/12 05:17:09;;;;;;;6.63;2.35;;;17.80;99.90;;;;;;4735803;30;20121;-72
2022/10/12 05:19:35;;;;;;;4.63;2.30;;;17.80;99.90;;;;;;4736939;30;20141;-72
2022/10/12 05:22:01;;;;;;;6.85;2.20;;;17.80;99.90;;;;;;4737861;29;20044;-71
2022/10/12 05:24:27;;;;;;;6.13;2.35;;;17.80;99.90;;;;;;4734415;30;20045;-71
2022/10/12 05:26:53;;;;;;;6.78;2.58;;;17.90;99.90;;;;;;4740942;30;20048;-72
2022/10/12 05:29:19;;;;;;;7.35;3.38;;;17.90;99.90;;;;;;4739323;30;20404;-72
2022/10/12 05:31:45;;;;;;;6.03;2.53;;;17.90;99.90;;;;;;4741253;30;20041;-72
2022/10/12 05:34:11;;;;;;;5.80;2.92;;;17.90;99.90;;;;;;4736279;30;20046;-72
2022/10/12 05:36:36;;;;;;;8.02;2.88;;;17.90;99.90;;;;;;4752146;30;20060;-72
2022/10/12 05:39:03;;;;;;;5.28;2.70;;;17.90;99.90;;;;;;4739831;30;20382;-72
2022/10/12 05:41:30;;;;;;;5.78;2.67;;;17.90;99.90;;;;;;4741054;30;20086;-73
2022/10/12 05:43:56;;;;;;;6.28;2.42;;;17.90;99.90;;;;;;4741301;30;20121;-72
2022/10/12 05:46:22;;;;;;;5.90;2.42;;;17.90;99.90;;;;;;4742089;30;20212;-72
2022/10/12 05:48:48;;;;;;;7.55;2.97;;;17.90;99.90;;;;;;4744143;30;20072;-72
2022/10/12 05:51:13;;;;;;;7.07;2.50;;;17.90;99.90;;;;;;4742700;30;20048;-72
2022/10/12 05:53:39;;;;;;;7.65;3.08;;;17.90;99.90;;;;;;4738708;30;20119;-71
2022/10/12 05:56:05;;;;;;;5.32;2.80;;;17.80;99.90;;;;;;4739034;30;20040;-72
2022/10/12 05:58:31;;;;;;;5.60;3.20;;;17.80;99.90;;;;;;4742079;30;20044;-72
2022/10/12 06:01:08;;;;;;;6.78;2.40;;;17.90;99.90;;;;;;4738114;30;20043;-72
2022/10/12 06:03:34;;;;;;;7.05;2.88;;;17.90;99.90;;;;;;4726273;30;20036;-73
2022/10/12 06:06:00;;;;;;;4.63;2.40;;;17.80;99.90;;;;;;4741658;30;20536;-72
2022/10/12 06:08:28;;;;;;;4.65;2.25;;;17.80;99.90;;;;;;4741524;30;20121;-74
2022/10/12 06:10:54;;;;;;;6.18;2.47;;;17.80;99.90;;;;;;4741642;29;20519;-71
2022/10/12 06:13:20;;;;;;;4.82;2.80;;;17.90;99.90;;;;;;4740272;30;20143;-72
2022/10/12 06:15:46;;;;;;;5.75;2.50;;;17.90;99.90;;;;;;4753278;30;20040;-72
2022/10/12 06:18:13;;;;;;;5.22;2.40;;;18.00;99.90;;;;;;4734638;30;20051;-71
2022/10/12 06:20:39;;;;;;;5.55;2.28;;;18.00;99.90;;;;;;4742392;30;20043;-73
2022/10/12 06:23:05;;;;;;;5.10;2.30;;;18.00;99.90;;;;;;4737680;30;20044;-72
2022/10/12 06:25:31;;;;;;;5.07;2.10;;;18.00;99.90;;;;;;4742353;30;20040;-72
2022/10/12 06:27:56;;;;;;;5.03;2.50;;;18.10;99.90;;;;;;4741107;30;20036;-73
2022/10/12 06:30:22;;;;;;;5.78;2.03;;;18.20;99.90;;;;;;4737945;29;20118;-71
2022/10/12 06:32:48;;;;;;;6.50;2.55;;;18.20;99.90;;;;;;4736010;30;20156;-73
2022/10/12 06:35:14;;;;;;;5.28;2.50;;;18.20;99.90;;;;;;4740468;30;20051;-73
2022/10/12 06:37:39;;;;;;;6.60;2.47;;;18.30;99.90;;;;;;4741269;30;20036;-72
2022/10/12 06:40:06;;;;;;;6.45;2.30;;;18.30;99.90;;;;;;4741305;30;20056;-73
2022/10/12 06:42:32;;;;;;;5.35;2.10;;;18.30;99.90;;;;;;4738634;30;20481;-72
2022/10/12 06:44:57;;;;;;;6.15;2.13;;;18.30;99.90;;;;;;4736329;30;20043;-73
2022/10/12 06:47:23;;;;;;;5.85;2.47;;;18.40;99.90;;;;;;4744790;29;20123;-72
2022/10/12 06:49:49;;;;;;;5.57;2.10;;;18.40;99.90;;;;;;4737596;30;20079;-72
2022/10/12 06:52:14;;;;;;;4.75;1.98;;;18.50;99.90;;;;;;4738671;30;20513;-72
2022/10/12 06:54:40;;;;;;;5.43;2.00;;;18.50;99.90;;;;;;4739865;30;20041;-72
2022/10/12 06:57:06;;;;;;;4.65;2.10;;;18.60;99.90;;;;;;4741505;29;20467;-72
2022/10/12 06:59:32;;;;;;;5.45;2.22;;;18.60;99.90;;;;;;4740846;30;20582;-72
2022/10/12 07:01:58;;;;;;;8.07;2.33;;;18.60;99.90;;;;;;4744308;29;20045;-73
2022/10/12 07:04:23;;;;;;;4.40;1.98;;;18.70;99.90;;;;;;4740088;30;20098;-72
2022/10/12 07:06:49;;;;;;;5.43;2.03;;;18.70;99.90;;;;;;4742033;29;20047;-73
2022/10/12 07:09:16;;;;;;;6.28;2.10;;;18.80;99.90;;;;;;4739638;30;20047;-73
2022/10/12 07:11:43;;;;;;;;;;;18.90;99.90;;;;;;4741664;29;20131;-74
2022/10/12 07:14:09;;;;;;;14.18;6.13;;;19.00;99.90;;;;;;4740580;30;19929;-73
2022/10/12 07:16:34;;;;;;;6.88;2.40;;;19.10;99.90;;;;;;4740863;30;20036;-74
2022/10/12 07:19:01;;;;;;;4.78;1.98;;;19.20;99.90;;;;;;4738952;30;20044;-72
2022/10/12 07:21:27;;;;;;;4.70;1.88;;;19.20;99.90;;;;;;4739671;30;20042;-73
2022/10/12 07:23:53;;;;;;;4.30;1.80;;;19.20;99.90;;;;;;4744171;30;20047;-73
2022/10/12 07:26:19;;;;;;;6.00;2.03;;;19.30;99.90;;;;;;4749862;30;20066;-71
2022/10/12 07:28:46;;;;;;;6.45;2.10;;;19.30;99.90;;;;;;4738343;30;20479;-72
2022/10/12 07:31:12;;;;;;;5.05;1.85;;;19.40;99.90;;;;;;4745758;30;20065;-73
2022/10/12 07:33:37;;;;;;;4.85;2.05;;;19.40;99.90;;;;;;4740928;30;20072;-73
2022/10/12 07:36:05;;;;;;;7.57;2.35;;;19.40;99.90;;;;;;4739220;30;20129;-74
2022/10/12 07:38:31;;;;;;;5.82;1.95;;;19.40;99.90;;;;;;4742284;30;20127;-73
2022/10/12 07:41:01;;;;;;;5.03;1.80;;;19.40;99.90;;;;;;4737458;30;20131;-75
2022/10/12 07:43:29;;;;;;;6.22;2.25;;;19.40;99.90;;;;;;4741175;30;20051;-75
2022/10/12 07:45:55;;;;;;;7.63;2.83;;;19.50;99.90;;;;;;4740444;30;20054;-73
2022/10/12 07:48:22;;;;;;;4.40;1.80;;;19.50;99.90;;;;;;4738722;30;20596;-72
2022/10/12 07:50:48;;;;;;;4.65;2.10;;;19.50;99.90;;;;;;4736634;30;20063;-73
2022/10/12 07:53:17;;;;;;;4.18;1.85;;;19.60;99.90;;;;;;4728022;30;20036;-74
2022/10/12 07:55:42;;;;;;;5.15;2.17;;;19.70;99.90;;;;;;4739283;30;20094;-74
2022/10/12 07:58:08;;;;;;;4.75;2.20;;;19.70;99.90;;;;;;4735025;30;20048;-76
2022/10/12 08:00:38;;;;;;;5.78;2.45;;;19.80;99.90;;;;;;4741448;30;20039;-75
2022/10/12 08:03:03;;;;;;;5.18;1.92;;;19.80;99.90;;;;;;4738876;30;20055;-75
2022/10/12 08:05:29;;;;;;;14.82;7.15;;;19.90;99.90;;;;;;4731093;30;20035;-74
2022/10/12 08:07:55;;;;;;;8.90;3.78;;;19.90;99.90;;;;;;4748385;30;20048;-74
2022/10/12 08:10:22;;;;;;;6.32;2.38;;;20.00;99.90;;;;;;4728386;29;20058;-73
2022/10/12 08:12:48;;;;;;;6.35;2.38;;;20.10;99.90;;;;;;4741890;30;20082;-74
2022/10/12 08:15:14;;;;;;;5.38;2.55;;;20.30;99.90;;;;;;4739348;30;20409;-73
2022/10/12 08:17:40;;;;;;;6.47;2.28;;;20.80;99.90;;;;;;4743194;30;20054;-74
2022/10/12 08:20:07;;;;;;;4.50;2.63;;;21.00;99.90;;;;;;4736414;30;20063;-73
2022/10/12 08:22:32;;;;;;;7.95;2.35;;;20.80;99.90;;;;;;4740246;30;20048;-72
2022/10/12 08:24:58;;;;;;;5.82;2.15;;;20.70;99.90;;;;;;4736511;30;20494;-74
2022/10/12 08:27:24;;;;;;;6.00;2.40;;;20.60;99.90;;;;;;4741255;30;20044;-74
2022/10/12 08:29:50;;;;;;;6.15;2.60;;;20.70;99.90;;;;;;4740700;30;20127;-74
2022/10/12 08:32:15;;;;;;;5.63;2.58;;;20.80;99.90;;;;;;4735978;29;20048;-73
2022/10/12 08:34:42;;;;;;;5.80;2.13;;;21.00;99.90;;;;;;4740282;30;20052;-74
2022/10/12 08:37:07;;;;;;;4.70;2.15;;;21.30;99.90;;;;;;4738877;30;20110;-73
2022/10/12 08:39:33;;;;;;;5.10;2.13;;;21.40;99.90;;;;;;4736240;30;20070;-73
2022/10/12 08:42:37;;;;;;;8.00;2.42;;;21.70;99.90;;;;;;4736891;30;20434;-73
2022/10/12 08:45:31;;;;;;;6.00;2.30;;;21.80;99.90;;;;;;4732032;29;20040;-74
2022/10/12 08:48:22;;;;;;;5.78;2.00;;;22.00;99.90;;;;;;4741523;30;20072;-72
2022/10/12 08:50:56;;;;;;;3.65;1.50;;;22.20;99.90;;;;;;4739512;30;20044;-73
2022/10/12 08:53:31;;;;;;;5.20;1.90;;;22.30;99.90;;;;;;4733672;30;20512;-73
2022/10/12 08:55:58;;;;;;;5.13;1.80;;;22.50;99.90;;;;;;4738278;30;20156;-74
2022/10/12 08:58:30;;;;;;;;;;;22.40;99.90;;;;;;4730799;29;20052;-74
2022/10/12 09:01:25;;;;;;;5.32;1.90;;;22.50;99.90;;;;;;4735899;30;19918;-75
2022/10/12 09:04:03;;;;;;;5.75;1.85;;;22.40;99.90;;;;;;4725043;30;20060;-74
2022/10/12 09:06:36;;;;;;;4.10;1.92;;;22.50;99.90;;;;;;4727184;30;20114;-74
2022/10/12 09:09:32;;;;;;;9.43;2.13;;;22.70;99.90;;;;;;4726448;30;20076;-73
2022/10/12 09:12:10;;;;;;;6.43;3.17;;;22.90;99.90;;;;;;4734323;30;20044;-73
2022/10/12 09:14:39;;;;;;;14.45;8.02;;;22.90;99.90;;;;;;4738345;30;20040;-73
2022/10/12 09:17:23;;;;;;;5.00;2.40;;;23.00;99.90;;;;;;4723464;30;20457;-73
2022/10/12 09:20:16;;;;;;;4.55;2.30;;;23.20;99.90;;;;;;4742008;30;20032;-73
2022/10/12 09:22:46;;;;;;;5.95;1.90;;;23.40;99.90;;;;;;4721899;30;20036;-74
2022/10/12 09:25:14;;;;;;;5.47;2.13;;;23.30;99.90;;;;;;4740088;30;20085;-74
2022/10/12 09:27:43;;;;;;;6.40;2.35;;;23.30;99.90;;;;;;4754070;30;20055;-73
2022/10/12 09:30:12;;;;;;;7.22;1.98;;;23.50;99.90;;;;;;4739240;29;20102;-74
2022/10/12 09:32:59;;;;;;;6.20;2.22;;;23.60;99.90;;;;;;4743125;30;20292;-73
2022/10/12 09:35:26;;;;;;;5.05;1.98;;;23.60;99.90;;;;;;4738899;30;20060;-74
2022/10/12 09:37:53;;;;;;;6.70;2.22;;;23.70;99.90;;;;;;4742766;30;20106;-73
2022/10/12 09:40:27;;;;;;;9.80;5.43;;;23.80;99.90;;;;;;4738180;30;20060;-73
2022/10/12 09:42:54;;;;;;;5.78;2.40;;;23.90;99.90;;;;;;4745338;30;20036;-74
2022/10/12 09:45:21;;;;;;;6.03;2.08;;;24.10;99.90;;;;;;4739825;30;20047;-74
2022/10/12 09:48:09;;;;;;;4.43;2.00;;;24.30;99.90;;;;;;4743135;30;20048;-75
2022/10/12 09:50:42;;;;;;;6.50;2.30;;;24.60;99.90;;;;;;4750143;30;20061;-74
2022/10/12 09:53:41;;;;;;;5.35;2.33;;;24.70;99.90;;;;;;4740163;30;20045;-74
2022/10/12 09:56:20;;;;;;;7.47;2.70;;;25.00;99.90;;;;;;4737829;29;20054;-75
2022/10/12 09:58:59;;;;;;;5.97;2.45;;;25.10;99.90;;;;;;4737047;30;20879;-73
2022/10/12 10:01:26;;;;;;;4.50;1.90;;;25.40;99.90;;;;;;4729543;29;20048;-74
2022/10/12 10:04:15;;;;;;;5.32;1.98;;;25.70;99.90;;;;;;4735265;30;20890;-73
2022/10/12 10:06:44;;;;;;;5.93;2.33;;;26.00;99.90;;;;;;4732292;30;20041;-73
2022/10/12 10:09:36;;;;;;;5.38;2.25;;;26.30;99.60;;;;;;4730837;30;20072;-73
2022/10/12 10:12:20;;;;;;;5.07;3.00;;;26.60;99.20;;;;;;4713408;30;20441;-73
2022/10/12 10:14:46;;;;;;;4.82;2.13;;;27.00;98.60;;;;;;4726179;30;20052;-73
2022/10/12 10:17:23;;;;;;;6.70;1.98;;;27.20;98.00;;;;;;4731018;30;20428;-73
2022/10/12 10:19:51;;;;;;;6.88;2.38;;;27.40;97.50;;;;;;4731903;30;20049;-73
2022/10/12 10:22:18;;;;;;;5.10;2.53;;;27.60;97.30;;;;;;4736675;30;20121;-74
2022/10/12 10:24:53;;;;;;;5.45;1.92;;;27.90;97.10;;;;;;4744050;30;20154;-73
2022/10/12 10:27:36;;;;;;;4.57;2.03;;;28.10;96.70;;;;;;4737873;29;20040;-73
2022/10/12 10:30:21;;;;;;;5.85;2.90;;;28.20;96.60;;;;;;4750976;30;20044;-73
2022/10/12 10:32:47;;;;;;;6.38;2.53;;;28.40;96.30;;;;;;4750960;30;20051;-73
2022/10/12 10:35:13;;;;;;;;;;;28.60;96.40;;;;;;4737006;30;20054;-73
2022/10/12 10:37:58;;;;;;;5.70;2.42;;;28.70;96.00;;;;;;4737319;30;19922;-73
2022/10/12 10:40:32;;;;;;;4.35;2.60;;;28.80;96.10;;;;;;4735046;30;20056;-75
2022/10/12 10:43:03;;;;;;;5.55;2.60;;;28.90;95.80;;;;;;4713133;30;20491;-74
2022/10/12 10:45:32;;;;;;;4.43;2.28;;;29.10;95.70;;;;;;4728329;30;20047;-73
2022/10/12 10:48:07;;;;;;;5.90;3.40;;;29.20;95.80;;;;;;4728560;30;20619;-74
2022/10/12 10:50:37;;;;;;;6.15;2.85;;;29.40;95.50;;;;;;4727580;30;20193;-74
2022/10/12 10:53:26;;;;;;;6.53;2.55;;;29.50;95.40;;;;;;4727285;29;20059;-74
2022/10/12 10:56:13;;;;;;;6.35;2.90;;;29.50;95.50;;;;;;4728462;30;20545;-74
2022/10/12 10:58:56;;;;;;;5.45;2.55;;;29.60;94.80;;;;;;4728819;29;20731;-74
2022/10/12 11:01:31;;;;;;;7.75;3.03;;;29.60;94.60;;;;;;4731624;30;20109;-74
2022/10/12 11:04:19;;;;;;;5.65;2.90;;;29.80;94.20;;;;;;4737035;29;20350;-74
2022/10/12 11:06:51;;;;;;;5.28;2.65;;;30.00;93.90;;;;;;4751934;30;20044;-75
2022/10/12 11:09:23;;;;;;;6.85;2.58;;;29.90;93.70;;;;;;4737768;29;20843;-74
2022/10/12 11:12:16;;;;;;;7.25;3.25;;;29.90;93.50;;;;;;4737965;30;20447;-75
2022/10/12 11:14:55;;;;;;;7.47;2.28;;;29.90;93.30;;;;;;4739259;30;20130;-74
2022/10/12 11:17:28;;;;;;;5.65;2.58;;;30.10;92.80;;;;;;4738621;30;20040;-74
2022/10/12 11:20:21;;;;;;;8.93;3.08;;;30.10;92.50;;;;;;4739864;30;20047;-75
2022/10/12 11:22:51;;;;;;;7.38;2.78;;;30.40;92.30;;;;;;4735976;30;20531;-75
2022/10/12 11:25:26;;;;;;;6.20;3.40;;;30.60;92.30;;;;;;4741246;30;20044;-75
2022/10/12 11:27:52;;;;;;;7.45;3.03;;;30.60;92.70;;;;;;4741192;30;20072;-74
2022/10/12 11:30:21;;;;;;;6.35;3.38;;;30.70;92.80;;;;;;4736402;29;20127;-75
2022/10/12 11:33:12;;;;;;;6.82;3.40;;;30.50;93.10;;;;;;4733683;30;20052;-74
2022/10/12 11:35:45;;;;;;;6.53;3.38;;;30.60;93.60;;;;;;4744068;29;20044;-74
2022/10/12 11:38:32;;;;;;;9.02;4.20;;;30.00;94.40;;;;;;4737316;30;20044;-75
2022/10/12 11:41:10;;;;;;;9.27;4.65;;;29.90;94.80;;;;;;4742503;30;20102;-74
2022/10/12 11:43:51;;;;;;;5.88;3.38;;;28.70;95.90;;;;;;4738731;30;20439;-74
2022/10/12 11:46:20;;;;;;;7.53;3.63;;;29.00;96.40;;;;;;4739428;29;20047;-74
2022/10/12 11:49:13;;;;;;;9.25;4.75;;;29.60;95.90;;;;;;4721026;30;20604;-74
2022/10/12 11:51:39;;;;;;;7.07;3.28;;;29.30;96.20;;;;;;4741286;29;20535;-75
2022/10/12 11:54:22;;;;;;;6.95;3.55;;;29.00;96.10;;;;;;4737544;30;20037;-74
2022/10/12 11:56:51;;;;;;;8.85;3.33;;;29.70;95.90;;;;;;4738527;30;20028;-74
2022/10/12 11:59:23;;;;;;;7.20;3.42;;;30.10;95.50;;;;;;4738968;30;20128;-73
2022/10/12 12:02:18;;;;;;;9.30;3.50;;;29.30;96.00;;;;;;4738859;30;20109;-75
2022/10/12 12:04:47;;;;;;;7.35;3.42;;;29.80;96.10;;;;;;4749882;30;20040;-74
2022/10/12 12:07:41;;;;;;;7.15;3.28;;;30.00;95.60;;;;;;4737711;30;20032;-75
2022/10/12 12:10:25;;;;;;;7.07;3.55;;;30.20;95.40;;;;;;4738830;30;20045;-74
2022/10/12 12:13:11;;;;;;;7.53;3.25;;;30.00;95.50;;;;;;4751155;30;20504;-74
2022/10/12 12:15:38;;;;;;;6.25;3.30;;;30.70;94.90;;;;;;4715365;30;20056;-74
2022/10/12 12:18:16;;;;;;;7.40;3.15;;;30.70;94.60;;;;;;4736878;30;20548;-74
2022/10/12 12:20:41;;;;;;;6.18;3.25;;;31.00;94.40;;;;;;4738763;29;20047;-74
2022/10/12 12:23:25;;;;;;;6.55;3.17;;;30.90;94.50;;;;;;4735843;30;20041;-73
2022/10/12 12:26:08;;;;;;;7.07;3.10;;;31.20;94.50;;;;;;4738442;30;20051;-74
2022/10/12 12:28:36;;;;;;;6.43;2.72;;;31.70;93.80;;;;;;4737083;30;20123;-74
2022/10/12 12:31:12;;;;;;;7.15;3.03;;;31.70;93.30;;;;;;4738773;30;20061;-74
2022/10/12 12:33:46;;;;;;;8.38;4.53;;;31.60;93.60;;;;;;4738640;30;20361;-76
2022/10/12 12:36:33;;;;;;;5.50;3.08;;;31.20;94.00;;;;;;4738565;30;20045;-75
2022/10/12 12:39:00;;;;;;;6.35;3.15;;;31.20;94.20;;;;;;4735655;30;20075;-74
2022/10/12 12:41:54;;;;;;;5.68;3.40;;;31.70;93.30;;;;;;4733606;30;20574;-74
2022/10/12 12:44:40;;;;;;;8.23;3.33;;;31.80;93.20;;;;;;4741233;30;20044;-74
2022/10/12 12:47:07;;;;;;;7.97;2.97;;;31.80;93.00;;;;;;4755614;29;20051;-74
2022/10/12 12:49:36;;;;;;;6.93;2.60;;;31.30;93.20;;;;;;4742463;30;20048;-75
2022/10/12 12:52:12;;;;;;;8.13;3.53;;;31.10;93.20;;;;;;4742580;30;20096;-75
2022/10/12 12:54:53;;;;;;;6.70;2.88;;;31.30;93.10;;;;;;4740000;30;20110;-74
2022/10/12 12:57:43;;;;;;;5.88;2.83;;;31.30;92.80;;;;;;4731965;29;20106;-74
2022/10/12 13:00:20;;;;;;;8.52;4.65;;;31.70;92.70;;;;;;4729775;29;20389;-77
2022/10/12 13:03:13;;;;;;;4.82;2.50;;;32.10;92.10;;;;;;4737941;30;20056;-76
2022/10/12 13:06:09;;;;;;;6.88;3.08;;;31.90;92.20;;;;;;4733105;30;20040;-77
2022/10/12 13:09:10;;;;;;;4.68;3.05;;;32.30;92.10;;;;;;4720251;30;20056;-76
2022/10/12 13:11:57;;;;;;;8.88;3.75;;;31.60;92.30;;;;;;4733199;30;20582;-76